createdAt,value
2019-02-14T00:01:25.913Z,1.60
2019-02-14T00:03:55.299Z,1.60
2019-02-14T00:06:24.987Z,1.50
2019-02-14T00:08:54.415Z,1.50
2019-02-14T00:11:23.803Z,1.50
2019-02-14T00:13:53.165Z,1.50
2019-02-14T00:16:23.065Z,1.40
2019-02-14T00:18:52.738Z,1.30
2019-02-14T00:21:22.130Z,1.30
2019-02-14T00:23:51.516Z,1.40
2019-02-14T00:26:20.938Z,1.40
2019-02-14T00:28:50.310Z,1.50
2019-02-14T00:31:19.903Z,1.40
2019-02-14T00:33:49.606Z,1.40
2019-02-14T00:36:19.312Z,1.30
2019-02-14T00:38:48.635Z,1.40
2019-02-14T00:41:18.070Z,1.50
2019-02-14T00:43:47.459Z,1.50
2019-02-14T00:46:16.876Z,1.70
2019-02-14T00:48:46.259Z,1.70
2019-02-14T00:51:15.676Z,1.70
2019-02-14T00:53:45.407Z,1.60
2019-02-14T00:56:14.816Z,1.50
2019-02-14T00:58:44.193Z,1.40
2019-02-14T01:01:13.628Z,1.40
2019-02-14T01:03:43.004Z,1.40
2019-02-14T01:06:12.715Z,1.30
2019-02-14T01:08:42.080Z,1.20
2019-02-14T01:11:11.494Z,1.20
2019-02-14T01:13:40.887Z,1.30
2019-02-14T01:16:10.245Z,1.10
2019-02-14T01:18:39.637Z,1.20
2019-02-14T01:21:08.993Z,1.30
2019-02-14T01:23:38.377Z,1.30
2019-02-14T01:26:07.756Z,1.30
2019-02-14T01:28:37.160Z,1.20
2019-02-14T01:31:06.517Z,1.20
2019-02-14T01:33:35.840Z,1.10
2019-02-14T01:36:05.501Z,1.00
2019-02-14T01:38:35.229Z,1.10
2019-02-14T01:41:04.592Z,1.00
2019-02-14T01:43:33.990Z,1.00
2019-02-14T01:46:03.355Z,1.00
2019-02-14T01:48:32.738Z,0.90
2019-02-14T01:51:02.116Z,0.80
2019-02-14T01:53:32.141Z,0.70
2019-02-14T01:56:01.520Z,0.80
2019-02-14T01:58:31.259Z,0.80
2019-02-14T02:01:00.625Z,0.70
2019-02-14T02:03:30.006Z,0.60
2019-02-14T02:05:59.159Z,0.60
2019-02-14T02:08:28.987Z,0.60
2019-02-14T02:10:58.287Z,0.70
2019-02-14T02:13:27.922Z,0.70
2019-02-14T02:15:57.218Z,0.60
2019-02-14T02:18:26.953Z,0.70
2019-02-14T02:20:57.255Z,0.70
2019-02-14T02:23:26.493Z,0.80
2019-02-14T02:25:55.820Z,0.90
2019-02-14T02:28:25.133Z,0.80
2019-02-14T02:30:54.475Z,0.80
2019-02-14T02:33:23.711Z,0.60
2019-02-14T02:36:00.223Z,0.60
2019-02-14T02:38:23.822Z,0.40
2019-02-14T02:40:53.030Z,0.40
2019-02-14T02:43:22.349Z,0.40
2019-02-14T02:45:51.494Z,0.50
2019-02-14T02:48:20.741Z,0.70
2019-02-14T02:50:50.239Z,0.70
2019-02-14T02:53:19.480Z,0.80
2019-02-14T02:55:48.725Z,0.90
2019-02-14T02:58:17.979Z,0.90
2019-02-14T03:00:47.196Z,0.90
2019-02-14T03:03:16.709Z,0.70
2019-02-14T03:05:45.929Z,0.70
2019-02-14T03:08:15.442Z,0.80
2019-02-14T03:10:44.807Z,0.80
2019-02-14T03:13:14.103Z,0.70
2019-02-14T03:15:43.341Z,0.60
2019-02-14T03:18:12.640Z,0.50
2019-02-14T03:20:42.157Z,0.50
2019-02-14T03:23:11.369Z,0.40
2019-02-14T03:25:40.617Z,0.30
2019-02-14T03:28:10.182Z,0.30
2019-02-14T03:30:39.495Z,0.30
2019-02-14T03:33:08.799Z,0.40
2019-02-14T03:35:38.298Z,0.40
2019-02-14T03:38:09.641Z,0.50
2019-02-14T03:40:39.083Z,0.50
2019-02-14T03:43:08.301Z,0.50
2019-02-14T03:45:37.541Z,0.60
2019-02-14T03:48:07.081Z,0.50
2019-02-14T03:50:36.321Z,0.40
2019-02-14T03:53:05.542Z,0.40
2019-02-14T03:55:34.962Z,0.40
2019-02-14T03:58:04.252Z,0.30
2019-02-14T04:00:33.557Z,0.30
2019-02-14T04:03:02.847Z,0.20
2019-02-14T04:05:32.354Z,0.20
2019-02-14T04:08:01.678Z,0.10
2019-02-14T04:10:31.182Z,0.30
2019-02-14T04:13:00.486Z,0.20
2019-02-14T04:15:30.049Z,0.30
2019-02-14T04:17:59.342Z,0.30
2019-02-14T04:20:28.885Z,0.30
2019-02-14T04:22:58.177Z,0.20
2019-02-14T04:25:27.485Z,0.30
2019-02-14T04:27:56.778Z,0.20
2019-02-14T04:30:26.233Z,0.20
2019-02-14T04:32:55.595Z,0.20
2019-02-14T04:35:24.983Z,0.20
2019-02-14T04:37:55.254Z,0.30
2019-02-14T04:40:24.621Z,0.20
2019-02-14T04:42:54.137Z,0.10
2019-02-14T04:45:23.611Z,0.10
2019-02-14T04:47:53.001Z,0.10
2019-02-14T04:50:22.656Z,0.20
2019-02-14T04:52:52.013Z,0.20
2019-02-14T04:55:21.377Z,0.20
2019-02-14T04:57:50.760Z,0.10
2019-02-14T05:00:20.148Z,0.10
2019-02-14T05:02:49.525Z,0.00
2019-02-14T05:05:18.902Z,0.00
2019-02-14T05:07:48.319Z,0.00
2019-02-14T05:10:17.677Z,0.00
2019-02-14T05:12:47.061Z,0.10
2019-02-14T05:15:16.441Z,0.00
2019-02-14T05:17:45.841Z,0.10
2019-02-14T05:20:15.483Z,0.10
2019-02-14T05:22:44.878Z,0.10
2019-02-14T05:25:14.255Z,0.10
2019-02-14T05:27:43.926Z,0.10
2019-02-14T05:30:13.562Z,0.10
2019-02-14T05:32:42.958Z,0.10
2019-02-14T05:35:12.331Z,-0.10
2019-02-14T05:37:41.731Z,-0.20
2019-02-14T05:40:11.376Z,-0.10
2019-02-14T05:42:40.761Z,0.00
2019-02-14T05:45:10.728Z,0.00
2019-02-14T05:47:40.122Z,0.00
2019-02-14T05:50:09.760Z,0.00
2019-02-14T05:52:39.155Z,0.00
2019-02-14T05:55:09.694Z,0.00
2019-02-14T05:57:39.763Z,0.00
2019-02-14T06:00:11.142Z,0.00
2019-02-14T06:02:40.565Z,-0.10
2019-02-14T06:05:09.950Z,-0.10
2019-02-14T06:07:39.370Z,-0.10
2019-02-14T06:10:09.130Z,-0.10
2019-02-14T06:12:38.791Z,0.00
2019-02-14T06:15:08.638Z,0.10
2019-02-14T06:17:38.034Z,0.10
2019-02-14T06:20:08.255Z,0.10
2019-02-14T06:22:37.652Z,0.00
2019-02-14T06:25:07.362Z,0.10
2019-02-14T06:27:36.764Z,0.20
2019-02-14T06:30:07.446Z,0.20
2019-02-14T06:32:36.826Z,0.20
2019-02-14T06:35:06.622Z,0.20
2019-02-14T06:37:36.012Z,0.20
2019-02-14T06:40:06.332Z,0.30
2019-02-14T06:42:35.736Z,0.20
2019-02-14T06:45:05.426Z,0.20
2019-02-14T06:47:34.838Z,0.30
2019-02-14T06:50:04.313Z,0.30
2019-02-14T06:52:34.140Z,0.20
2019-02-14T06:55:03.517Z,0.10
2019-02-14T06:57:32.913Z,0.10
2019-02-14T07:00:02.295Z,0.10
2019-02-14T07:02:31.711Z,0.00
2019-02-14T07:05:01.082Z,0.00
2019-02-14T07:07:30.512Z,0.00
2019-02-14T07:10:00.318Z,0.10
2019-02-14T07:12:30.105Z,0.00
2019-02-14T07:14:59.492Z,0.20
2019-02-14T07:17:28.916Z,0.30
2019-02-14T07:19:58.868Z,0.40
2019-02-14T07:22:28.262Z,0.50
2019-02-14T07:24:57.647Z,0.50
2019-02-14T07:27:27.059Z,0.50
2019-02-14T07:29:56.434Z,0.60
2019-02-14T07:32:25.895Z,0.60
2019-02-14T07:34:55.267Z,0.70
2019-02-14T07:37:26.848Z,0.80
2019-02-14T07:39:55.698Z,0.90
2019-02-14T07:42:25.104Z,0.90
2019-02-14T07:44:54.493Z,1.00
2019-02-14T07:47:23.899Z,1.00
2019-02-14T07:49:53.291Z,1.10
2019-02-14T07:52:25.216Z,1.20
2019-02-14T07:54:53.773Z,1.30
2019-02-14T07:57:23.769Z,1.30
2019-02-14T07:59:53.136Z,1.50
2019-02-14T08:02:22.514Z,1.60
2019-02-14T08:04:51.930Z,1.70
2019-02-14T08:07:21.321Z,1.80
2019-02-14T08:09:50.730Z,1.80
2019-02-14T08:12:20.378Z,1.90
2019-02-14T08:14:50.150Z,1.90
2019-02-14T08:17:19.546Z,2.00
2019-02-14T08:19:48.953Z,2.20
2019-02-14T08:22:18.681Z,2.20
2019-02-14T08:24:49.015Z,2.30
2019-02-14T08:27:18.491Z,2.40
2019-02-14T08:29:47.915Z,2.50
2019-02-14T08:32:17.296Z,2.60
2019-02-14T08:34:46.949Z,2.70
2019-02-14T08:37:16.334Z,2.60
2019-02-14T08:39:45.755Z,2.80
2019-02-14T08:42:15.168Z,2.80
2019-02-14T08:44:44.971Z,2.80
2019-02-14T08:47:14.356Z,2.90
2019-02-14T08:49:43.782Z,2.90
2019-02-14T08:52:13.464Z,3.10
2019-02-14T08:54:42.862Z,3.10
2019-02-14T08:57:12.251Z,3.30
2019-02-14T08:59:41.654Z,3.40
2019-02-14T09:02:11.325Z,3.60
2019-02-14T09:04:40.722Z,3.80
2019-02-14T09:07:11.426Z,3.90
2019-02-14T09:09:41.033Z,4.00
2019-02-14T09:12:10.444Z,4.40
2019-02-14T09:14:39.850Z,4.50
2019-02-14T09:17:09.222Z,4.50
2019-02-14T09:19:38.683Z,4.70
2019-02-14T09:22:08.214Z,4.80
2019-02-14T09:24:38.095Z,4.80
2019-02-14T09:27:07.482Z,4.80
2019-02-14T09:29:37.146Z,4.80
2019-02-14T09:32:06.547Z,4.80
2019-02-14T09:34:36.420Z,4.90
2019-02-14T09:37:05.803Z,5.20
2019-02-14T09:39:40.790Z,5.40
2019-02-14T09:42:06.256Z,5.50
2019-02-14T09:44:35.668Z,5.40
2019-02-14T09:47:05.097Z,5.50
2019-02-14T09:49:34.508Z,5.70
2019-02-14T09:52:03.912Z,5.90
2019-02-14T09:54:33.439Z,6.00
2019-02-14T09:57:02.841Z,5.90
2019-02-14T09:59:32.528Z,6.10
2019-02-14T10:02:01.906Z,6.20
2019-02-14T10:04:31.569Z,6.30
2019-02-14T10:07:01.051Z,6.50
2019-02-14T10:09:30.413Z,6.50
2019-02-14T10:11:59.780Z,6.60
2019-02-14T10:14:29.202Z,6.70
2019-02-14T10:16:58.587Z,6.90
2019-02-14T10:19:28.743Z,7.00
2019-02-14T10:21:58.179Z,7.10
2019-02-14T10:24:27.581Z,7.30
2019-02-14T10:26:56.965Z,7.40
2019-02-14T10:29:26.754Z,7.60
2019-02-14T10:31:56.118Z,7.60
2019-02-14T10:34:25.534Z,7.80
2019-02-14T10:36:54.921Z,7.90
2019-02-14T10:39:24.324Z,8.10
2019-02-14T10:41:53.711Z,8.10
2019-02-14T10:44:23.109Z,8.20
2019-02-14T10:46:52.987Z,8.40
2019-02-14T10:49:22.395Z,8.50
2019-02-14T10:51:51.778Z,8.40
2019-02-14T10:54:21.232Z,8.60
2019-02-14T10:56:50.626Z,8.60
2019-02-14T10:59:20.588Z,8.70
2019-02-14T11:01:49.967Z,8.70
2019-02-14T11:04:19.397Z,8.80
2019-02-14T11:06:48.939Z,8.90
2019-02-14T11:09:18.365Z,9.10
2019-02-14T11:11:47.766Z,9.10
2019-02-14T11:14:17.444Z,9.10
2019-02-14T11:16:46.822Z,9.30
2019-02-14T11:19:16.248Z,9.40
2019-02-14T11:21:45.948Z,9.50
2019-02-14T11:24:15.337Z,9.60
2019-02-14T11:26:45.020Z,9.80
2019-02-14T11:29:14.431Z,9.90
2019-02-14T11:31:44.082Z,9.90
2019-02-14T11:34:14.368Z,10.00
2019-02-14T11:36:44.118Z,10.00
2019-02-14T11:39:13.555Z,10.10
2019-02-14T11:41:43.049Z,10.20
2019-02-14T11:44:12.469Z,10.20
2019-02-14T11:46:51.083Z,10.20
2019-02-14T11:49:13.024Z,10.20
2019-02-14T11:51:42.450Z,10.10
2019-02-14T11:54:12.530Z,10.00
2019-02-14T11:56:42.990Z,10.00
2019-02-14T11:59:12.408Z,9.90
2019-02-14T12:01:41.798Z,9.80
2019-02-14T12:04:11.223Z,9.80
2019-02-14T12:06:41.035Z,9.70
2019-02-14T12:09:10.549Z,9.80
2019-02-14T12:11:39.926Z,9.90
2019-02-14T12:14:09.379Z,10.00
2019-02-14T12:16:39.221Z,10.20
2019-02-14T12:19:09.021Z,10.40
2019-02-14T12:21:39.278Z,10.40
2019-02-14T12:24:10.056Z,10.70
2019-02-14T12:26:40.348Z,10.70
2019-02-14T12:29:10.727Z,10.70
2019-02-14T12:31:40.561Z,11.00
2019-02-14T12:34:10.372Z,11.20
2019-02-14T12:36:39.758Z,11.20
2019-02-14T12:39:11.566Z,10.80
2019-02-14T12:41:40.306Z,11.00
2019-02-14T12:44:09.714Z,11.30
2019-02-14T12:46:39.390Z,11.40
2019-02-14T12:49:08.844Z,11.60
2019-02-14T12:51:38.236Z,11.70
2019-02-14T12:54:07.675Z,11.70
2019-02-14T12:56:37.065Z,11.60
2019-02-14T12:59:06.475Z,11.80
2019-02-14T13:01:36.256Z,12.00
2019-02-14T13:04:05.796Z,12.00
2019-02-14T13:06:35.492Z,12.10
2019-02-14T13:09:06.778Z,12.30
2019-02-14T13:11:36.455Z,12.60
2019-02-14T13:14:05.866Z,12.40
2019-02-14T13:16:35.315Z,12.60
2019-02-14T13:19:04.709Z,12.70
2019-02-14T13:21:34.132Z,12.60
2019-02-14T13:24:03.819Z,12.50
2019-02-14T13:26:33.235Z,12.30
2019-02-14T13:29:02.977Z,12.40
2019-02-14T13:31:32.597Z,12.30
2019-02-14T13:34:02.038Z,12.30
2019-02-14T13:36:31.456Z,12.00
2019-02-14T13:39:01.160Z,11.80
2019-02-14T13:41:31.398Z,11.70
2019-02-14T13:44:00.964Z,11.70
2019-02-14T13:46:30.643Z,11.60
2019-02-14T13:49:00.047Z,11.60
2019-02-14T13:51:29.765Z,11.40
2019-02-14T13:53:59.157Z,11.40
2019-02-14T13:56:28.565Z,11.40
2019-02-14T13:58:57.973Z,11.30
2019-02-14T14:01:27.374Z,11.20
2019-02-14T14:03:57.120Z,11.10
2019-02-14T14:06:26.537Z,11.10
2019-02-14T14:08:55.938Z,10.90
2019-02-14T14:11:25.357Z,10.90
2019-02-14T14:13:55.140Z,10.90
2019-02-14T14:16:24.570Z,10.80
2019-02-14T14:18:53.962Z,10.80
2019-02-14T14:21:23.385Z,10.90
2019-02-14T14:23:52.773Z,11.10
2019-02-14T14:26:22.186Z,11.00
2019-02-14T14:28:51.633Z,10.90
2019-02-14T14:31:21.050Z,10.90
2019-02-14T14:33:50.460Z,10.90
2019-02-14T14:36:20.758Z,10.80
2019-02-14T14:38:50.154Z,10.80
2019-02-14T14:41:19.584Z,10.80
2019-02-14T14:44:10.706Z,10.70
2019-02-14T14:46:54.844Z,10.80
2019-02-14T14:49:25.829Z,10.80
2019-02-14T14:51:55.255Z,11.00
2019-02-14T14:54:24.928Z,11.00
2019-02-14T14:56:54.345Z,11.00
2019-02-14T14:59:23.747Z,11.10
2019-02-14T15:01:53.291Z,11.10
2019-02-14T15:04:22.693Z,11.10
2019-02-14T15:06:52.133Z,11.00
2019-02-14T15:09:21.513Z,10.90
2019-02-14T15:11:50.947Z,10.90
2019-02-14T15:14:20.338Z,10.90
2019-02-14T15:16:49.761Z,10.80
2019-02-14T15:19:19.142Z,10.70
2019-02-14T15:21:48.567Z,10.60
2019-02-14T15:24:18.001Z,10.50
2019-02-14T15:26:47.416Z,10.40
2019-02-14T15:29:17.094Z,10.40
2019-02-14T15:31:46.519Z,10.30
2019-02-14T15:34:16.047Z,10.10
2019-02-14T15:36:47.286Z,10.10
2019-02-14T15:39:16.788Z,10.00
2019-02-14T15:41:46.224Z,10.00
2019-02-14T15:44:15.901Z,9.80
2019-02-14T15:46:45.299Z,9.70
2019-02-14T15:49:14.700Z,9.60
2019-02-14T15:51:44.140Z,9.50
2019-02-14T15:54:13.537Z,9.30
2019-02-14T15:56:43.045Z,9.30
2019-02-14T15:59:12.447Z,9.20
2019-02-14T16:01:43.926Z,9.10
2019-02-14T16:04:12.901Z,9.10
2019-02-14T16:06:42.384Z,9.00
2019-02-14T16:09:12.343Z,8.80
2019-02-14T16:11:43.146Z,8.70
2019-02-14T16:14:12.838Z,8.60
2019-02-14T16:16:43.330Z,8.50
2019-02-14T16:19:13.719Z,8.30
2019-02-14T16:21:43.392Z,8.20
2019-02-14T16:24:14.305Z,8.00
2019-02-14T16:26:43.833Z,7.90
2019-02-14T16:29:13.247Z,7.90
2019-02-14T16:31:42.639Z,7.90
2019-02-14T16:34:12.048Z,8.00
2019-02-14T16:36:41.424Z,7.90
2019-02-14T16:39:10.841Z,7.70
2019-02-14T16:41:40.569Z,7.60
2019-02-14T16:44:10.687Z,7.40
2019-02-14T16:46:40.082Z,7.40
2019-02-14T16:49:09.499Z,7.50
2019-02-14T16:51:39.158Z,7.30
2019-02-14T16:54:08.562Z,7.20
2019-02-14T16:56:37.947Z,7.10
2019-02-14T16:59:07.485Z,7.00
2019-02-14T17:01:36.911Z,7.00
2019-02-14T17:04:06.319Z,7.00
2019-02-14T17:06:35.728Z,6.90
2019-02-14T17:09:06.035Z,6.90
2019-02-14T17:11:35.427Z,6.70
2019-02-14T17:14:04.851Z,6.60
2019-02-14T17:16:34.264Z,6.40
2019-02-14T17:19:03.677Z,6.30
2019-02-14T17:21:33.106Z,6.30
2019-02-14T17:24:02.584Z,6.20
2019-02-14T17:26:31.978Z,6.00
2019-02-14T17:29:01.417Z,6.00
2019-02-14T17:31:30.808Z,6.00
2019-02-14T17:34:00.483Z,5.90
2019-02-14T17:36:29.884Z,5.70
2019-02-14T17:38:59.471Z,5.80
2019-02-14T17:41:28.837Z,5.90
2019-02-14T17:43:58.259Z,6.00
2019-02-14T17:46:27.783Z,5.90
2019-02-14T17:48:57.224Z,5.70
2019-02-14T17:51:26.892Z,5.60
2019-02-14T17:53:56.322Z,5.60
2019-02-14T17:56:25.977Z,5.50
2019-02-14T17:58:55.426Z,5.60
2019-02-14T18:01:25.093Z,5.50
2019-02-14T18:03:54.496Z,5.40
2019-02-14T18:06:24.138Z,5.20
2019-02-14T18:08:53.910Z,5.20
2019-02-14T18:11:23.308Z,5.20
2019-02-14T18:13:53.100Z,5.20
2019-02-14T18:16:22.790Z,5.20
2019-02-14T18:18:52.472Z,5.10
2019-02-14T18:21:21.917Z,5.00
2019-02-14T18:23:51.335Z,4.90
2019-02-14T18:26:20.737Z,4.80
2019-02-14T18:28:50.126Z,4.70
2019-02-14T18:31:19.564Z,4.70
2019-02-14T18:33:48.981Z,4.70
2019-02-14T18:36:18.340Z,4.70
2019-02-14T18:38:47.717Z,4.80
2019-02-14T18:41:17.424Z,4.90
2019-02-14T18:43:46.836Z,4.90
2019-02-14T18:46:16.233Z,4.80
2019-02-14T18:48:45.731Z,4.70
2019-02-14T18:51:15.138Z,4.70
2019-02-14T18:53:44.528Z,4.60
2019-02-14T18:56:13.918Z,4.50
2019-02-14T18:58:43.860Z,4.50
2019-02-14T19:01:13.273Z,4.50
2019-02-14T19:03:42.933Z,4.30
2019-02-14T19:06:12.350Z,4.20
2019-02-14T19:08:42.018Z,4.10
2019-02-14T19:11:15.141Z,4.30
2019-02-14T19:13:42.448Z,4.30
2019-02-14T19:16:12.135Z,4.20
2019-02-14T19:18:41.522Z,4.10
2019-02-14T19:21:11.277Z,4.20
2019-02-14T19:23:40.672Z,4.20
2019-02-14T19:26:10.376Z,4.20
2019-02-14T19:28:39.759Z,4.20
2019-02-14T19:31:09.179Z,4.00
2019-02-14T19:33:38.545Z,3.90
2019-02-14T19:36:07.976Z,3.90
2019-02-14T19:38:37.838Z,4.00
2019-02-14T19:41:07.248Z,4.00
2019-02-14T19:43:36.633Z,4.00
2019-02-14T19:46:06.029Z,4.00
2019-02-14T19:48:35.401Z,4.00
2019-02-14T19:51:04.803Z,4.00
2019-02-14T19:53:34.202Z,3.90
2019-02-14T19:56:03.627Z,4.00
2019-02-14T19:58:33.057Z,3.90
2019-02-14T20:01:02.420Z,3.80
2019-02-14T20:03:32.046Z,3.80
2019-02-14T20:06:01.760Z,3.80
2019-02-14T20:08:31.760Z,3.80
2019-02-14T20:11:01.143Z,3.80
2019-02-14T20:13:30.993Z,3.70
2019-02-14T20:16:00.391Z,3.60
2019-02-14T20:18:29.805Z,3.70
2019-02-14T20:20:59.189Z,4.00
2019-02-14T20:23:28.955Z,4.10
2019-02-14T20:25:58.328Z,4.00
2019-02-14T20:28:27.734Z,4.10
2019-02-14T20:30:57.127Z,4.00
2019-02-14T20:33:26.537Z,3.90
2019-02-14T20:35:55.945Z,3.90
2019-02-14T20:38:25.633Z,3.90
2019-02-14T20:40:55.026Z,3.80
2019-02-14T20:43:24.431Z,3.80
2019-02-14T20:45:54.132Z,3.90
2019-02-14T20:48:23.552Z,3.90
2019-02-14T20:50:52.933Z,3.90
2019-02-14T20:53:22.346Z,3.80
2019-02-14T20:55:51.763Z,3.80
2019-02-14T20:58:21.405Z,3.90
2019-02-14T21:00:50.800Z,3.80
2019-02-14T21:03:20.504Z,3.80
2019-02-14T21:05:49.908Z,3.70
2019-02-14T21:08:19.342Z,3.60
2019-02-14T21:10:48.758Z,3.50
2019-02-14T21:13:18.456Z,3.50
2019-02-14T21:15:48.208Z,3.40
2019-02-14T21:18:17.974Z,3.40
2019-02-14T21:20:47.659Z,3.20
2019-02-14T21:23:17.050Z,3.10
2019-02-14T21:25:46.455Z,3.30
2019-02-14T21:28:15.952Z,3.50
2019-02-14T21:30:45.354Z,3.50
2019-02-14T21:33:14.754Z,3.40
2019-02-14T21:35:44.345Z,3.40
2019-02-14T21:38:13.837Z,3.40
2019-02-14T21:40:43.250Z,3.30
2019-02-14T21:43:12.676Z,3.20
2019-02-14T21:45:42.037Z,3.20
2019-02-14T21:48:11.811Z,3.20
2019-02-14T21:50:41.224Z,3.10
2019-02-14T21:53:10.618Z,3.00
2019-02-14T21:55:39.991Z,2.90
2019-02-14T21:58:09.398Z,2.90
2019-02-14T22:00:39.148Z,2.90
2019-02-14T22:03:08.547Z,3.00
2019-02-14T22:05:37.933Z,2.90
2019-02-14T22:08:07.401Z,2.80
2019-02-14T22:10:37.119Z,2.80
2019-02-14T22:13:06.885Z,2.70
2019-02-14T22:15:36.313Z,2.70
2019-02-14T22:18:05.686Z,2.70
2019-02-14T22:20:35.474Z,2.80
2019-02-14T22:23:04.778Z,2.80
2019-02-14T22:25:34.192Z,2.90
2019-02-14T22:28:03.573Z,3.00
2019-02-14T22:30:33.117Z,3.00
2019-02-14T22:33:02.507Z,3.00
2019-02-14T22:35:31.912Z,3.00
2019-02-14T22:38:01.314Z,3.00
2019-02-14T22:40:31.369Z,3.30
2019-02-14T22:43:00.763Z,3.20
2019-02-14T22:45:30.175Z,3.20
2019-02-14T22:47:59.878Z,3.10
2019-02-14T22:50:29.295Z,3.00
2019-02-14T22:52:58.704Z,2.90
2019-02-14T22:55:28.145Z,2.80
2019-02-14T22:57:57.537Z,2.70
2019-02-14T23:00:40.587Z,2.70
2019-02-14T23:03:09.970Z,2.60
2019-02-14T23:05:39.660Z,2.70
2019-02-14T23:08:09.378Z,2.80
2019-02-14T23:10:39.793Z,2.70
2019-02-14T23:13:09.273Z,2.70
2019-02-14T23:15:38.713Z,2.70
2019-02-14T23:18:08.093Z,2.70
2019-02-14T23:20:37.871Z,2.70
2019-02-14T23:23:07.241Z,2.80
2019-02-14T23:25:36.661Z,2.90
2019-02-14T23:28:06.323Z,2.90
2019-02-14T23:30:36.288Z,2.80
2019-02-14T23:33:05.707Z,2.80
2019-02-14T23:35:35.998Z,2.80
2019-02-14T23:38:05.465Z,2.70
2019-02-14T23:40:35.317Z,2.50
2019-02-14T23:43:05.093Z,2.40
2019-02-14T23:45:34.712Z,2.40
2019-02-14T23:48:04.101Z,2.30
2019-02-14T23:50:33.837Z,2.20
2019-02-14T23:53:03.243Z,2.20
2019-02-14T23:55:32.689Z,2.10
2019-02-14T23:58:02.741Z,2.00
